Terminal Aerodrome Forecast
Issued by NWS Sioux Falls, SD

Home | Current Version | Previous Version | Graphics & Text | Print | Product List | Glossary Off
Versions: 1 2 3 4 5 6 7 8 9 10 11 12 13 14 15 16 17 18 19 20 21 22 23

000
FTUS43 KFSD 241647 AAB
TAFFSD
TAF AMD
KFSD 241647Z 2417/2512 30011KT 3SM -SN BR OVC004
      TEMPO 2417/2419 1SM BR
     FM241900 28007KT 4SM BR OVC008
     FM242200 24006KT P6SM BKN012
     FM250100 23006KT P6SM SCT012 SCT150
     FM250300 17007KT P6SM SCT060 SCT200=

USA.gov is the U.S. government's official web portal to all federal, state and local government web resources and services.